sensor_id;sensor_type;location;lat;lon;timestamp;P1;durP1;ratioP1;P2;durP2;ratioP2
5923;SDS011;2987;50.884;14.818;2023-03-04T00:00:56;51.23;;;23.10;;
5923;SDS011;2987;50.884;14.818;2023-03-04T00:03:22;55.60;;;21.47;;
5923;SDS011;2987;50.884;14.818;2023-03-04T00:05:48;52.40;;;21.17;;
5923;SDS011;2987;50.884;14.818;2023-03-04T00:08:14;59.30;;;23.40;;
5923;SDS011;2987;50.884;14.818;2023-03-04T00:10:41;54.70;;;24.03;;
5923;SDS011;2987;50.884;14.818;2023-03-04T00:13:08;56.57;;;22.47;;
5923;SDS011;2987;50.884;14.818;2023-03-04T00:15:34;56.53;;;22.47;;
5923;SDS011;2987;50.884;14.818;2023-03-04T00:18:00;61.17;;;23.30;;
5923;SDS011;2987;50.884;14.818;2023-03-04T00:20:26;59.20;;;23.07;;
5923;SDS011;2987;50.884;14.818;2023-03-04T00:22:52;52.43;;;23.40;;
5923;SDS011;2987;50.884;14.818;2023-03-04T00:25:18;55.87;;;23.13;;
5923;SDS011;2987;50.884;14.818;2023-03-04T00:27:44;54.93;;;22.97;;
5923;SDS011;2987;50.884;14.818;2023-03-04T00:30:11;52.37;;;22.70;;
5923;SDS011;2987;50.884;14.818;2023-03-04T00:32:37;51.87;;;22.87;;
5923;SDS011;2987;50.884;14.818;2023-03-04T00:35:04;56.10;;;23.40;;
5923;SDS011;2987;50.884;14.818;2023-03-04T00:37:31;52.57;;;23.33;;
5923;SDS011;2987;50.884;14.818;2023-03-04T00:39:57;54.87;;;21.83;;
5923;SDS011;2987;50.884;14.818;2023-03-04T00:42:24;50.70;;;22.00;;
5923;SDS011;2987;50.884;14.818;2023-03-04T00:44:50;55.77;;;24.23;;
5923;SDS011;2987;50.884;14.818;2023-03-04T00:47:16;54.77;;;23.00;;
5923;SDS011;2987;50.884;14.818;2023-03-04T00:49:42;44.70;;;21.67;;
5923;SDS011;2987;50.884;14.818;2023-03-04T00:52:08;57.00;;;23.57;;
5923;SDS011;2987;50.884;14.818;2023-03-04T00:54:35;51.67;;;21.43;;
5923;SDS011;2987;50.884;14.818;2023-03-04T00:57:01;50.47;;;22.30;;
5923;SDS011;2987;50.884;14.818;2023-03-04T00:59:28;49.53;;;22.47;;
5923;SDS011;2987;50.884;14.818;2023-03-04T01:01:54;47.73;;;21.03;;
5923;SDS011;2987;50.884;14.818;2023-03-04T01:04:20;50.83;;;21.63;;
5923;SDS011;2987;50.884;14.818;2023-03-04T01:06:46;47.33;;;21.27;;
5923;SDS011;2987;50.884;14.818;2023-03-04T01:09:12;46.00;;;21.30;;
5923;SDS011;2987;50.884;14.818;2023-03-04T01:11:38;40.00;;;20.37;;
5923;SDS011;2987;50.884;14.818;2023-03-04T01:14:04;45.33;;;21.07;;
5923;SDS011;2987;50.884;14.818;2023-03-04T01:16:31;46.50;;;21.27;;
5923;SDS011;2987;50.884;14.818;2023-03-04T01:18:57;41.47;;;20.03;;
5923;SDS011;2987;50.884;14.818;2023-03-04T01:21:23;45.03;;;20.67;;
5923;SDS011;2987;50.884;14.818;2023-03-04T01:23:49;41.70;;;19.13;;
5923;SDS011;2987;50.884;14.818;2023-03-04T01:26:15;42.13;;;20.17;;
5923;SDS011;2987;50.884;14.818;2023-03-04T01:28:42;42.33;;;19.87;;
5923;SDS011;2987;50.884;14.818;2023-03-04T01:31:08;41.90;;;20.33;;
5923;SDS011;2987;50.884;14.818;2023-03-04T01:33:34;44.37;;;20.87;;
5923;SDS011;2987;50.884;14.818;2023-03-04T01:36:00;44.47;;;21.37;;
5923;SDS011;2987;50.884;14.818;2023-03-04T01:38:26;46.40;;;21.60;;
5923;SDS011;2987;50.884;14.818;2023-03-04T01:40:52;42.37;;;20.43;;
5923;SDS011;2987;50.884;14.818;2023-03-04T01:43:21;48.30;;;22.30;;
5923;SDS011;2987;50.884;14.818;2023-03-04T01:45:52;44.93;;;21.77;;
5923;SDS011;2987;50.884;14.818;2023-03-04T01:48:21;41.77;;;20.77;;
5923;SDS011;2987;50.884;14.818;2023-03-04T01:50:53;42.53;;;20.73;;
5923;SDS011;2987;50.884;14.818;2023-03-04T01:53:21;46.03;;;22.63;;
5923;SDS011;2987;50.884;14.818;2023-03-04T01:55:51;40.53;;;20.47;;
5923;SDS011;2987;50.884;14.818;2023-03-04T01:58:20;44.50;;;21.30;;
5923;SDS011;2987;50.884;14.818;2023-03-04T02:00:52;47.37;;;21.50;;
5923;SDS011;2987;50.884;14.818;2023-03-04T02:03:19;48.23;;;21.60;;
5923;SDS011;2987;50.884;14.818;2023-03-04T02:05:47;46.37;;;22.07;;
5923;SDS011;2987;50.884;14.818;2023-03-04T02:08:17;46.63;;;21.13;;
5923;SDS011;2987;50.884;14.818;2023-03-04T02:10:46;50.50;;;22.40;;
5923;SDS011;2987;50.884;14.818;2023-03-04T02:13:13;47.30;;;21.30;;
5923;SDS011;2987;50.884;14.818;2023-03-04T02:15:40;40.63;;;21.13;;
5923;SDS011;2987;50.884;14.818;2023-03-04T02:18:13;43.63;;;20.87;;
5923;SDS011;2987;50.884;14.818;2023-03-04T02:20:45;40.70;;;20.53;;
5923;SDS011;2987;50.884;14.818;2023-03-04T02:23:29;41.73;;;20.07;;
5923;SDS011;2987;50.884;14.818;2023-03-04T02:26:11;36.97;;;19.20;;
5923;SDS011;2987;50.884;14.818;2023-03-04T02:28:50;41.00;;;20.87;;
5923;SDS011;2987;50.884;14.818;2023-03-04T02:31:21;36.30;;;19.30;;
5923;SDS011;2987;50.884;14.818;2023-03-04T02:33:55;36.63;;;19.73;;
5923;SDS011;2987;50.884;14.818;2023-03-04T02:36:26;37.77;;;19.20;;
5923;SDS011;2987;50.884;14.818;2023-03-04T02:38:54;36.07;;;19.67;;
5923;SDS011;2987;50.884;14.818;2023-03-04T02:41:28;35.10;;;19.97;;
5923;SDS011;2987;50.884;14.818;2023-03-04T02:43:56;38.57;;;19.50;;
5923;SDS011;2987;50.884;14.818;2023-03-04T02:46:23;37.30;;;19.80;;
5923;SDS011;2987;50.884;14.818;2023-03-04T02:48:49;32.70;;;18.63;;
5923;SDS011;2987;50.884;14.818;2023-03-04T02:51:16;39.87;;;21.07;;
5923;SDS011;2987;50.884;14.818;2023-03-04T02:53:43;36.70;;;20.37;;
5923;SDS011;2987;50.884;14.818;2023-03-04T02:56:10;36.17;;;20.47;;
5923;SDS011;2987;50.884;14.818;2023-03-04T02:58:37;38.73;;;21.77;;
5923;SDS011;2987;50.884;14.818;2023-03-04T03:01:04;37.50;;;21.50;;
5923;SDS011;2987;50.884;14.818;2023-03-04T03:03:31;38.33;;;22.10;;
5923;SDS011;2987;50.884;14.818;2023-03-04T03:05:57;32.93;;;20.37;;
5923;SDS011;2987;50.884;14.818;2023-03-04T03:08:29;36.53;;;22.30;;
5923;SDS011;2987;50.884;14.818;2023-03-04T03:10:55;32.47;;;20.27;;
5923;SDS011;2987;50.884;14.818;2023-03-04T03:13:22;40.50;;;21.90;;
5923;SDS011;2987;50.884;14.818;2023-03-04T03:15:49;38.57;;;22.43;;
5923;SDS011;2987;50.884;14.818;2023-03-04T03:18:15;37.70;;;21.60;;
5923;SDS011;2987;50.884;14.818;2023-03-04T03:20:41;37.83;;;22.17;;
5923;SDS011;2987;50.884;14.818;2023-03-04T03:23:08;37.37;;;22.50;;
5923;SDS011;2987;50.884;14.818;2023-03-04T03:25:34;32.63;;;19.90;;
5923;SDS011;2987;50.884;14.818;2023-03-04T03:28:00;33.43;;;19.70;;
5923;SDS011;2987;50.884;14.818;2023-03-04T03:30:26;31.37;;;20.10;;
5923;SDS011;2987;50.884;14.818;2023-03-04T03:32:53;31.43;;;20.00;;
5923;SDS011;2987;50.884;14.818;2023-03-04T03:35:19;30.60;;;20.17;;
5923;SDS011;2987;50.884;14.818;2023-03-04T03:37:45;31.03;;;19.17;;
5923;SDS011;2987;50.884;14.818;2023-03-04T03:40:13;34.53;;;19.20;;
5923;SDS011;2987;50.884;14.818;2023-03-04T03:42:39;28.10;;;19.70;;
5923;SDS011;2987;50.884;14.818;2023-03-04T03:45:05;30.17;;;19.37;;
5923;SDS011;2987;50.884;14.818;2023-03-04T03:47:32;32.90;;;19.83;;
5923;SDS011;2987;50.884;14.818;2023-03-04T03:50:00;33.43;;;20.73;;
5923;SDS011;2987;50.884;14.818;2023-03-04T03:52:26;28.77;;;19.07;;
5923;SDS011;2987;50.884;14.818;2023-03-04T03:54:52;34.17;;;20.83;;
5923;SDS011;2987;50.884;14.818;2023-03-04T03:57:18;29.47;;;19.73;;
5923;SDS011;2987;50.884;14.818;2023-03-04T03:59:44;32.00;;;19.70;;
5923;SDS011;2987;50.884;14.818;2023-03-04T04:02:10;30.10;;;19.50;;
5923;SDS011;2987;50.884;14.818;2023-03-04T04:04:36;26.83;;;18.37;;
5923;SDS011;2987;50.884;14.818;2023-03-04T04:07:02;27.63;;;18.47;;
5923;SDS011;2987;50.884;14.818;2023-03-04T04:09:28;31.60;;;19.37;;
5923;SDS011;2987;50.884;14.818;2023-03-04T04:11:55;28.17;;;18.90;;
5923;SDS011;2987;50.884;14.818;2023-03-04T04:14:21;28.93;;;18.27;;
5923;SDS011;2987;50.884;14.818;2023-03-04T04:16:47;31.10;;;18.90;;
5923;SDS011;2987;50.884;14.818;2023-03-04T04:19:17;27.10;;;17.83;;
5923;SDS011;2987;50.884;14.818;2023-03-04T04:21:45;26.27;;;17.63;;
5923;SDS011;2987;50.884;14.818;2023-03-04T04:24:12;24.40;;;16.63;;
5923;SDS011;2987;50.884;14.818;2023-03-04T04:26:38;25.30;;;17.57;;
5923;SDS011;2987;50.884;14.818;2023-03-04T04:29:05;24.80;;;16.47;;
5923;SDS011;2987;50.884;14.818;2023-03-04T04:31:31;26.40;;;16.90;;
5923;SDS011;2987;50.884;14.818;2023-03-04T04:33:58;25.03;;;15.60;;
5923;SDS011;2987;50.884;14.818;2023-03-04T04:36:24;23.80;;;16.03;;
5923;SDS011;2987;50.884;14.818;2023-03-04T04:38:51;25.10;;;15.53;;
5923;SDS011;2987;50.884;14.818;2023-03-04T04:41:20;24.47;;;15.10;;
5923;SDS011;2987;50.884;14.818;2023-03-04T04:43:50;25.57;;;14.50;;
5923;SDS011;2987;50.884;14.818;2023-03-04T04:46:17;24.37;;;14.47;;
5923;SDS011;2987;50.884;14.818;2023-03-04T04:48:43;23.23;;;14.40;;
5923;SDS011;2987;50.884;14.818;2023-03-04T04:51:10;20.60;;;14.07;;
5923;SDS011;2987;50.884;14.818;2023-03-04T04:53:36;21.30;;;13.50;;
5923;SDS011;2987;50.884;14.818;2023-03-04T04:56:07;22.57;;;14.63;;
5923;SDS011;2987;50.884;14.818;2023-03-04T04:58:37;26.83;;;15.40;;
5923;SDS011;2987;50.884;14.818;2023-03-04T05:01:06;21.87;;;14.13;;
5923;SDS011;2987;50.884;14.818;2023-03-04T05:03:33;26.00;;;14.63;;
5923;SDS011;2987;50.884;14.818;2023-03-04T05:06:01;22.90;;;13.67;;
5923;SDS011;2987;50.884;14.818;2023-03-04T05:08:28;20.63;;;13.47;;
5923;SDS011;2987;50.884;14.818;2023-03-04T05:10:55;22.50;;;14.30;;
5923;SDS011;2987;50.884;14.818;2023-03-04T05:13:21;24.10;;;14.93;;
5923;SDS011;2987;50.884;14.818;2023-03-04T05:15:49;26.20;;;14.57;;
5923;SDS011;2987;50.884;14.818;2023-03-04T05:18:18;24.37;;;14.37;;
5923;SDS011;2987;50.884;14.818;2023-03-04T05:20:48;24.80;;;15.00;;
5923;SDS011;2987;50.884;14.818;2023-03-04T05:23:17;24.17;;;14.83;;
5923;SDS011;2987;50.884;14.818;2023-03-04T05:25:43;25.23;;;14.27;;
5923;SDS011;2987;50.884;14.818;2023-03-04T05:28:09;22.20;;;13.87;;
5923;SDS011;2987;50.884;14.818;2023-03-04T05:30:38;22.40;;;13.37;;
5923;SDS011;2987;50.884;14.818;2023-03-04T05:33:06;27.33;;;15.07;;
5923;SDS011;2987;50.884;14.818;2023-03-04T05:35:34;23.90;;;14.30;;
5923;SDS011;2987;50.884;14.818;2023-03-04T05:38:02;24.67;;;15.30;;
5923;SDS011;2987;50.884;14.818;2023-03-04T05:40:29;24.33;;;14.50;;
5923;SDS011;2987;50.884;14.818;2023-03-04T05:42:56;26.40;;;15.40;;
5923;SDS011;2987;50.884;14.818;2023-03-04T05:45:22;23.53;;;14.60;;
5923;SDS011;2987;50.884;14.818;2023-03-04T05:47:49;23.47;;;14.03;;
5923;SDS011;2987;50.884;14.818;2023-03-04T05:50:16;28.87;;;14.47;;
5923;SDS011;2987;50.884;14.818;2023-03-04T05:52:43;23.87;;;14.67;;
5923;SDS011;2987;50.884;14.818;2023-03-04T05:55:09;24.63;;;14.10;;
5923;SDS011;2987;50.884;14.818;2023-03-04T05:57:35;24.67;;;14.07;;
5923;SDS011;2987;50.884;14.818;2023-03-04T06:00:02;26.97;;;14.40;;
5923;SDS011;2987;50.884;14.818;2023-03-04T06:02:38;26.70;;;13.50;;
5923;SDS011;2987;50.884;14.818;2023-03-04T06:05:06;22.87;;;13.73;;
5923;SDS011;2987;50.884;14.818;2023-03-04T06:07:33;27.20;;;13.90;;
5923;SDS011;2987;50.884;14.818;2023-03-04T06:10:00;20.70;;;12.20;;
5923;SDS011;2987;50.884;14.818;2023-03-04T06:12:28;27.47;;;13.23;;
5923;SDS011;2987;50.884;14.818;2023-03-04T06:14:54;28.17;;;13.23;;
5923;SDS011;2987;50.884;14.818;2023-03-04T06:17:21;25.70;;;13.00;;
5923;SDS011;2987;50.884;14.818;2023-03-04T06:19:46;20.40;;;13.30;;
5923;SDS011;2987;50.884;14.818;2023-03-04T06:22:13;19.90;;;12.93;;
5923;SDS011;2987;50.884;14.818;2023-03-04T06:24:39;20.27;;;13.73;;
5923;SDS011;2987;50.884;14.818;2023-03-04T06:27:05;26.80;;;14.23;;
5923;SDS011;2987;50.884;14.818;2023-03-04T06:29:32;20.97;;;13.23;;
5923;SDS011;2987;50.884;14.818;2023-03-04T06:31:58;24.30;;;12.53;;
5923;SDS011;2987;50.884;14.818;2023-03-04T06:34:24;22.53;;;11.97;;
5923;SDS011;2987;50.884;14.818;2023-03-04T06:36:50;25.87;;;11.57;;
5923;SDS011;2987;50.884;14.818;2023-03-04T06:39:17;23.40;;;11.30;;
5923;SDS011;2987;50.884;14.818;2023-03-04T06:41:43;25.03;;;11.33;;
5923;SDS011;2987;50.884;14.818;2023-03-04T06:44:09;25.23;;;11.70;;
5923;SDS011;2987;50.884;14.818;2023-03-04T06:46:36;22.93;;;10.87;;
5923;SDS011;2987;50.884;14.818;2023-03-04T06:49:02;20.53;;;11.03;;
5923;SDS011;2987;50.884;14.818;2023-03-04T06:51:28;18.43;;;10.50;;
5923;SDS011;2987;50.884;14.818;2023-03-04T06:53:55;20.87;;;11.00;;
5923;SDS011;2987;50.884;14.818;2023-03-04T06:56:21;21.60;;;11.20;;
5923;SDS011;2987;50.884;14.818;2023-03-04T06:58:47;24.07;;;11.30;;
5923;SDS011;2987;50.884;14.818;2023-03-04T07:01:15;18.97;;;9.60;;
5923;SDS011;2987;50.884;14.818;2023-03-04T07:03:43;20.40;;;8.33;;
5923;SDS011;2987;50.884;14.818;2023-03-04T07:06:10;20.67;;;8.97;;
5923;SDS011;2987;50.884;14.818;2023-03-04T07:08:37;23.30;;;9.97;;
5923;SDS011;2987;50.884;14.818;2023-03-04T07:11:05;20.57;;;10.27;;
5923;SDS011;2987;50.884;14.818;2023-03-04T07:13:31;23.30;;;8.90;;
5923;SDS011;2987;50.884;14.818;2023-03-04T07:16:00;19.97;;;9.33;;
5923;SDS011;2987;50.884;14.818;2023-03-04T07:18:26;19.97;;;8.87;;
5923;SDS011;2987;50.884;14.818;2023-03-04T07:20:52;17.40;;;8.47;;
5923;SDS011;2987;50.884;14.818;2023-03-04T07:23:18;29.17;;;9.93;;
5923;SDS011;2987;50.884;14.818;2023-03-04T07:25:45;18.20;;;9.40;;
5923;SDS011;2987;50.884;14.818;2023-03-04T07:28:12;19.97;;;9.53;;
5923;SDS011;2987;50.884;14.818;2023-03-04T07:30:39;20.57;;;8.73;;
5923;SDS011;2987;50.884;14.818;2023-03-04T07:33:05;20.30;;;9.50;;
5923;SDS011;2987;50.884;14.818;2023-03-04T07:35:31;25.90;;;9.07;;
5923;SDS011;2987;50.884;14.818;2023-03-04T07:37:57;20.20;;;9.37;;
5923;SDS011;2987;50.884;14.818;2023-03-04T07:40:23;20.83;;;8.60;;
5923;SDS011;2987;50.884;14.818;2023-03-04T07:42:50;26.43;;;8.50;;
5923;SDS011;2987;50.884;14.818;2023-03-04T07:45:17;20.33;;;9.33;;
5923;SDS011;2987;50.884;14.818;2023-03-04T07:47:44;16.87;;;9.87;;
5923;SDS011;2987;50.884;14.818;2023-03-04T07:50:11;20.40;;;9.40;;
5923;SDS011;2987;50.884;14.818;2023-03-04T07:52:38;20.10;;;9.37;;
5923;SDS011;2987;50.884;14.818;2023-03-04T07:55:06;21.13;;;9.67;;
5923;SDS011;2987;50.884;14.818;2023-03-04T07:57:33;21.30;;;10.20;;
5923;SDS011;2987;50.884;14.818;2023-03-04T07:59:59;16.10;;;9.47;;
5923;SDS011;2987;50.884;14.818;2023-03-04T08:02:25;18.70;;;9.63;;
5923;SDS011;2987;50.884;14.818;2023-03-04T08:04:51;19.57;;;9.87;;
5923;SDS011;2987;50.884;14.818;2023-03-04T08:07:17;25.97;;;10.73;;
5923;SDS011;2987;50.884;14.818;2023-03-04T08:09:44;17.57;;;10.10;;
5923;SDS011;2987;50.884;14.818;2023-03-04T08:12:10;20.50;;;11.37;;
5923;SDS011;2987;50.884;14.818;2023-03-04T08:14:36;21.53;;;11.10;;
5923;SDS011;2987;50.884;14.818;2023-03-04T08:17:02;18.60;;;10.60;;
5923;SDS011;2987;50.884;14.818;2023-03-04T08:19:28;17.80;;;10.90;;
5923;SDS011;2987;50.884;14.818;2023-03-04T08:21:54;17.30;;;10.27;;
5923;SDS011;2987;50.884;14.818;2023-03-04T08:24:21;16.73;;;11.13;;
5923;SDS011;2987;50.884;14.818;2023-03-04T08:26:49;26.33;;;11.27;;
5923;SDS011;2987;50.884;14.818;2023-03-04T08:29:16;23.60;;;11.17;;
5923;SDS011;2987;50.884;14.818;2023-03-04T08:31:47;22.67;;;10.80;;
5923;SDS011;2987;50.884;14.818;2023-03-04T08:34:14;17.67;;;10.07;;
5923;SDS011;2987;50.884;14.818;2023-03-04T08:36:41;19.50;;;10.40;;
5923;SDS011;2987;50.884;14.818;2023-03-04T08:39:08;17.83;;;9.83;;
5923;SDS011;2987;50.884;14.818;2023-03-04T08:41:36;16.97;;;10.23;;
5923;SDS011;2987;50.884;14.818;2023-03-04T08:44:03;18.00;;;11.20;;
5923;SDS011;2987;50.884;14.818;2023-03-04T08:46:30;15.60;;;9.97;;
5923;SDS011;2987;50.884;14.818;2023-03-04T08:48:56;16.67;;;9.57;;
5923;SDS011;2987;50.884;14.818;2023-03-04T08:51:22;14.87;;;9.43;;
5923;SDS011;2987;50.884;14.818;2023-03-04T08:53:49;15.67;;;9.87;;
5923;SDS011;2987;50.884;14.818;2023-03-04T08:56:16;18.60;;;9.50;;
5923;SDS011;2987;50.884;14.818;2023-03-04T08:58:43;16.33;;;9.00;;
5923;SDS011;2987;50.884;14.818;2023-03-04T09:01:10;16.87;;;9.00;;
5923;SDS011;2987;50.884;14.818;2023-03-04T09:03:41;15.13;;;10.17;;
5923;SDS011;2987;50.884;14.818;2023-03-04T09:06:08;17.33;;;9.07;;
5923;SDS011;2987;50.884;14.818;2023-03-04T09:08:41;14.80;;;8.87;;
5923;SDS011;2987;50.884;14.818;2023-03-04T09:11:10;16.33;;;8.80;;
5923;SDS011;2987;50.884;14.818;2023-03-04T09:13:38;12.67;;;8.33;;
5923;SDS011;2987;50.884;14.818;2023-03-04T09:16:08;14.47;;;9.00;;
5923;SDS011;2987;50.884;14.818;2023-03-04T09:18:36;12.87;;;8.43;;
5923;SDS011;2987;50.884;14.818;2023-03-04T09:21:05;11.17;;;8.00;;
5923;SDS011;2987;50.884;14.818;2023-03-04T09:23:34;11.17;;;8.80;;
5923;SDS011;2987;50.884;14.818;2023-03-04T09:26:12;12.70;;;8.43;;
5923;SDS011;2987;50.884;14.818;2023-03-04T09:28:49;12.43;;;8.87;;
5923;SDS011;2987;50.884;14.818;2023-03-04T09:31:18;14.50;;;9.10;;
5923;SDS011;2987;50.884;14.818;2023-03-04T09:33:44;14.23;;;8.47;;
5923;SDS011;2987;50.884;14.818;2023-03-04T09:36:11;11.63;;;7.70;;
5923;SDS011;2987;50.884;14.818;2023-03-04T09:38:39;14.50;;;8.53;;
5923;SDS011;2987;50.884;14.818;2023-03-04T09:41:07;10.90;;;7.70;;
5923;SDS011;2987;50.884;14.818;2023-03-04T09:43:37;12.30;;;8.73;;
5923;SDS011;2987;50.884;14.818;2023-03-04T09:46:07;11.70;;;7.90;;
5923;SDS011;2987;50.884;14.818;2023-03-04T09:48:42;11.83;;;8.23;;
5923;SDS011;2987;50.884;14.818;2023-03-04T09:51:17;12.83;;;8.33;;
5923;SDS011;2987;50.884;14.818;2023-03-04T09:53:49;13.23;;;8.13;;
5923;SDS011;2987;50.884;14.818;2023-03-04T09:56:23;13.73;;;8.47;;
5923;SDS011;2987;50.884;14.818;2023-03-04T09:58:55;12.43;;;8.03;;
5923;SDS011;2987;50.884;14.818;2023-03-04T10:01:31;12.50;;;7.90;;
5923;SDS011;2987;50.884;14.818;2023-03-04T10:04:25;12.60;;;7.77;;
5923;SDS011;2987;50.884;14.818;2023-03-04T10:07:01;12.77;;;7.87;;
5923;SDS011;2987;50.884;14.818;2023-03-04T10:09:31;9.73;;;7.47;;
5923;SDS011;2987;50.884;14.818;2023-03-04T10:12:11;14.07;;;8.30;;
5923;SDS011;2987;50.884;14.818;2023-03-04T10:17:35;11.67;;;7.30;;
5923;SDS011;2987;50.884;14.818;2023-03-04T10:20:04;13.17;;;8.10;;
5923;SDS011;2987;50.884;14.818;2023-03-04T10:27:50;11.10;;;7.60;;
5923;SDS011;2987;50.884;14.818;2023-03-04T10:33:34;8.63;;;6.80;;
5923;SDS011;2987;50.884;14.818;2023-03-04T10:48:57;9.80;;;7.03;;
5923;SDS011;2987;50.884;14.818;2023-03-04T10:51:25;11.60;;;7.47;;
5923;SDS011;2987;50.884;14.818;2023-03-04T10:53:57;10.83;;;7.33;;
5923;SDS011;2987;50.884;14.818;2023-03-04T10:56:39;9.47;;;6.63;;
5923;SDS011;2987;50.884;14.818;2023-03-04T11:02:19;8.27;;;6.50;;
5923;SDS011;2987;50.884;14.818;2023-03-04T11:05:04;9.50;;;7.03;;
5923;SDS011;2987;50.884;14.818;2023-03-04T11:10:17;9.93;;;6.60;;
5923;SDS011;2987;50.884;14.818;2023-03-04T11:12:50;11.97;;;6.27;;
5923;SDS011;2987;50.884;14.818;2023-03-04T11:18:11;11.27;;;7.07;;
5923;SDS011;2987;50.884;14.818;2023-03-04T11:20:40;9.70;;;7.03;;
5923;SDS011;2987;50.884;14.818;2023-03-04T11:23:10;13.87;;;6.57;;
5923;SDS011;2987;50.884;14.818;2023-03-04T11:25:41;9.53;;;6.07;;
5923;SDS011;2987;50.884;14.818;2023-03-04T11:28:18;9.83;;;5.87;;
5923;SDS011;2987;50.884;14.818;2023-03-04T11:30:52;8.53;;;6.10;;
5923;SDS011;2987;50.884;14.818;2023-03-04T11:36:50;9.47;;;5.97;;
5923;SDS011;2987;50.884;14.818;2023-03-04T11:50:08;9.83;;;6.60;;
5923;SDS011;2987;50.884;14.818;2023-03-04T11:52:53;9.57;;;6.10;;
5923;SDS011;2987;50.884;14.818;2023-03-04T11:55:45;7.93;;;6.07;;
5923;SDS011;2987;50.884;14.818;2023-03-04T12:04:56;8.13;;;5.40;;
5923;SDS011;2987;50.884;14.818;2023-03-04T12:13:14;8.77;;;5.63;;
5923;SDS011;2987;50.884;14.818;2023-03-04T12:18:43;6.67;;;5.23;;
5923;SDS011;2987;50.884;14.818;2023-03-04T12:24:31;7.73;;;5.33;;
5923;SDS011;2987;50.884;14.818;2023-03-04T12:29:47;9.60;;;5.43;;
5923;SDS011;2987;50.884;14.818;2023-03-04T12:32:26;8.00;;;5.33;;
5923;SDS011;2987;50.884;14.818;2023-03-04T12:35:07;8.93;;;6.13;;
5923;SDS011;2987;50.884;14.818;2023-03-04T12:37:51;9.07;;;6.70;;
5923;SDS011;2987;50.884;14.818;2023-03-04T12:40:42;8.23;;;5.87;;
5923;SDS011;2987;50.884;14.818;2023-03-04T12:43:19;8.40;;;5.87;;
5923;SDS011;2987;50.884;14.818;2023-03-04T12:46:01;8.70;;;5.97;;
5923;SDS011;2987;50.884;14.818;2023-03-04T12:48:48;8.17;;;5.53;;
5923;SDS011;2987;50.884;14.818;2023-03-04T12:51:29;8.83;;;5.40;;
5923;SDS011;2987;50.884;14.818;2023-03-04T12:54:04;9.60;;;5.70;;
5923;SDS011;2987;50.884;14.818;2023-03-04T13:01:54;6.37;;;5.17;;
5923;SDS011;2987;50.884;14.818;2023-03-04T13:04:39;7.60;;;5.53;;
5923;SDS011;2987;50.884;14.818;2023-03-04T13:07:33;7.30;;;5.10;;
5923;SDS011;2987;50.884;14.818;2023-03-04T13:10:22;10.67;;;6.20;;
5923;SDS011;2987;50.884;14.818;2023-03-04T13:12:52;5.90;;;5.20;;
5923;SDS011;2987;50.884;14.818;2023-03-04T13:20:36;8.60;;;5.40;;
5923;SDS011;2987;50.884;14.818;2023-03-04T13:28:42;7.97;;;5.17;;
5923;SDS011;2987;50.884;14.818;2023-03-04T13:31:12;9.77;;;5.30;;
5923;SDS011;2987;50.884;14.818;2023-03-04T13:33:44;5.73;;;4.70;;
5923;SDS011;2987;50.884;14.818;2023-03-04T13:39:21;7.10;;;5.07;;
5923;SDS011;2987;50.884;14.818;2023-03-04T13:41:51;6.30;;;5.20;;
5923;SDS011;2987;50.884;14.818;2023-03-04T13:49:40;8.33;;;5.23;;
5923;SDS011;2987;50.884;14.818;2023-03-04T14:05:38;10.10;;;5.80;;
5923;SDS011;2987;50.884;14.818;2023-03-04T14:08:23;7.10;;;5.53;;
5923;SDS011;2987;50.884;14.818;2023-03-04T14:10:54;8.33;;;5.50;;
5923;SDS011;2987;50.884;14.818;2023-03-04T14:13:21;7.27;;;5.70;;
5923;SDS011;2987;50.884;14.818;2023-03-04T14:15:54;10.37;;;5.83;;
5923;SDS011;2987;50.884;14.818;2023-03-04T14:18:22;10.33;;;6.30;;
5923;SDS011;2987;50.884;14.818;2023-03-04T14:20:50;11.07;;;6.77;;
5923;SDS011;2987;50.884;14.818;2023-03-04T14:23:27;10.13;;;6.00;;
5923;SDS011;2987;50.884;14.818;2023-03-04T14:26:04;9.07;;;5.47;;
5923;SDS011;2987;50.884;14.818;2023-03-04T14:28:48;8.70;;;5.93;;
5923;SDS011;2987;50.884;14.818;2023-03-04T14:31:18;6.80;;;5.40;;
5923;SDS011;2987;50.884;14.818;2023-03-04T14:33:47;7.23;;;5.70;;
5923;SDS011;2987;50.884;14.818;2023-03-04T14:36:17;8.20;;;5.70;;
5923;SDS011;2987;50.884;14.818;2023-03-04T14:38:54;8.63;;;5.43;;
5923;SDS011;2987;50.884;14.818;2023-03-04T14:41:24;9.10;;;5.27;;
5923;SDS011;2987;50.884;14.818;2023-03-04T14:49:15;8.63;;;5.80;;
5923;SDS011;2987;50.884;14.818;2023-03-04T14:51:47;10.27;;;5.97;;
5923;SDS011;2987;50.884;14.818;2023-03-04T14:54:28;8.43;;;5.77;;
5923;SDS011;2987;50.884;14.818;2023-03-04T14:57:23;11.03;;;5.23;;
5923;SDS011;2987;50.884;14.818;2023-03-04T15:02:37;9.57;;;5.80;;
5923;SDS011;2987;50.884;14.818;2023-03-04T15:05:09;10.43;;;6.27;;
5923;SDS011;2987;50.884;14.818;2023-03-04T15:07:54;10.80;;;5.60;;
5923;SDS011;2987;50.884;14.818;2023-03-04T15:10:26;8.10;;;5.23;;
5923;SDS011;2987;50.884;14.818;2023-03-04T15:12:55;10.03;;;5.90;;
5923;SDS011;2987;50.884;14.818;2023-03-04T15:15:30;9.93;;;5.50;;
5923;SDS011;2987;50.884;14.818;2023-03-04T15:18:13;10.77;;;6.70;;
5923;SDS011;2987;50.884;14.818;2023-03-04T15:20:58;11.37;;;6.43;;
5923;SDS011;2987;50.884;14.818;2023-03-04T15:23:27;12.20;;;6.40;;
5923;SDS011;2987;50.884;14.818;2023-03-04T15:25:57;8.63;;;5.90;;
5923;SDS011;2987;50.884;14.818;2023-03-04T15:28:25;8.60;;;6.10;;
5923;SDS011;2987;50.884;14.818;2023-03-04T15:30:56;11.33;;;6.30;;
5923;SDS011;2987;50.884;14.818;2023-03-04T15:33:22;9.37;;;6.40;;
5923;SDS011;2987;50.884;14.818;2023-03-04T15:35:51;9.73;;;6.43;;
5923;SDS011;2987;50.884;14.818;2023-03-04T15:38:20;10.87;;;6.17;;
5923;SDS011;2987;50.884;14.818;2023-03-04T15:40:47;10.20;;;6.23;;
5923;SDS011;2987;50.884;14.818;2023-03-04T15:43:17;8.53;;;6.40;;
5923;SDS011;2987;50.884;14.818;2023-03-04T15:45:46;9.57;;;6.37;;
5923;SDS011;2987;50.884;14.818;2023-03-04T15:48:14;8.53;;;6.30;;
5923;SDS011;2987;50.884;14.818;2023-03-04T15:50:44;8.40;;;5.90;;
5923;SDS011;2987;50.884;14.818;2023-03-04T15:53:16;9.80;;;5.40;;
5923;SDS011;2987;50.884;14.818;2023-03-04T15:55:57;7.93;;;5.00;;
5923;SDS011;2987;50.884;14.818;2023-03-04T15:58:24;5.97;;;4.90;;
5923;SDS011;2987;50.884;14.818;2023-03-04T16:00:51;5.80;;;4.47;;
5923;SDS011;2987;50.884;14.818;2023-03-04T16:03:18;6.83;;;4.67;;
5923;SDS011;2987;50.884;14.818;2023-03-04T16:05:47;6.33;;;4.73;;
5923;SDS011;2987;50.884;14.818;2023-03-04T16:08:16;6.57;;;4.57;;
5923;SDS011;2987;50.884;14.818;2023-03-04T16:10:44;9.30;;;5.90;;
5923;SDS011;2987;50.884;14.818;2023-03-04T16:13:13;11.43;;;6.37;;
5923;SDS011;2987;50.884;14.818;2023-03-04T16:15:41;10.80;;;5.93;;
5923;SDS011;2987;50.884;14.818;2023-03-04T16:18:08;7.67;;;3.90;;
5923;SDS011;2987;50.884;14.818;2023-03-04T16:20:35;10.83;;;4.90;;
5923;SDS011;2987;50.884;14.818;2023-03-04T16:23:03;5.50;;;3.40;;
5923;SDS011;2987;50.884;14.818;2023-03-04T16:25:30;8.50;;;3.47;;
5923;SDS011;2987;50.884;14.818;2023-03-04T16:27:57;9.13;;;4.03;;
5923;SDS011;2987;50.884;14.818;2023-03-04T16:30:27;9.73;;;3.50;;
5923;SDS011;2987;50.884;14.818;2023-03-04T16:32:55;14.30;;;4.43;;
5923;SDS011;2987;50.884;14.818;2023-03-04T16:35:21;9.37;;;3.90;;
5923;SDS011;2987;50.884;14.818;2023-03-04T16:37:51;11.10;;;3.60;;
5923;SDS011;2987;50.884;14.818;2023-03-04T16:40:19;7.73;;;3.67;;
5923;SDS011;2987;50.884;14.818;2023-03-04T16:42:49;9.73;;;3.83;;
5923;SDS011;2987;50.884;14.818;2023-03-04T16:45:18;11.17;;;4.37;;
5923;SDS011;2987;50.884;14.818;2023-03-04T16:47:46;12.83;;;4.60;;
5923;SDS011;2987;50.884;14.818;2023-03-04T16:50:13;16.93;;;5.97;;